Ashton, ID

7:35 AM MDT on October 01, 2014 (GMT -0600)
Parkinson Seed Farm, Saint Anthony | Change Station
CLOSE
Current Station
Personal Weather Station
Location: Ashton, ID
Elevation: 5358 ft
Nearby Weather Stations

Elev 5358 ft 43.94 °N, 111.48 °W | Updated 3 seconds ago

Mostly Cloudy
Mostly Cloudy
38.5 °F
Feels Like 35 °F
N
4.9
Wind Variable Wind from SE
Gusts 6.0 mph

Today
High -- | Low -- °F
--% Chance of Precip.
Yesterday
High -- | Low -- °F
Precip. -- in
7:23 AM 7:06 PM
Waxing Crescent, 47% visible
Pressure 30.02 in
Visibility 10.0 miles
Clouds Scattered Clouds 1400 ft
Mostly Cloudy 2700 ft
Overcast 4400 ft
Windchill 35 °F
Dew Point 36 °F
Humidity 89%
Rainfall 0.01 in
Snow Depth 0 in , 1 in , 0 in
UV 0 out of 12
Pollen 5.70 out of 12
Air Quality Not available.
Flu Activity Not available.
SPECI KDIJ 011239Z AUTO 08004KT 10SM UP SCT014 BKN027 OVC044 02/02 A3002 RMK AO2 BKN V OVC P0000

More Conditions Fewer Conditions

Pressure 30.02 in
Visibility 10.0 miles
Clouds Scattered Clouds 1400 ft
Mostly Cloudy 2700 ft
Overcast 4400 ft
Windchill 35 °F
Dew Point 36 °F
Humidity 89%
Rainfall 0.01 in
Snow Depth 0 in , 1 in , 0 in
UV 0 out of 12
Pollen 5.70 out of 12
Air Quality Not available.
Flu Activity Not available.
SPECI KDIJ 011239Z AUTO 08004KT 10SM UP SCT014 BKN027 OVC044 02/02 A3002 RMK AO2 BKN V OVC P0000

More Conditions Fewer Conditions

10-Day Weather Forecast

Almanac

Astronomy

Oct. 01, 2014 Rise Set
Actual Time 7:23 AM MDT 7:06 PM MDT
Civil Twilight 6:54 AM MDT 7:34 PM MDT
Nautical Twilight 6:20 AM MDT 8:08 PM MDT
Astronomical Twilight 5:46 AM MDT 8:42 PM MDT
Moon 2:36 PM MDT No Moon Set
Length of Visible Light 12h 40m
Length of Day
11h 42m
Tomorrow will be 3m 0s shorter.
Waxing Crescent, 47% of the Moon is Illuminated
Today
Waxing Crescent
Oct 1
First Quarter
Oct 8
Full
Oct 15
Last Quarter
Oct 23
New

Today's Extremes

State Highs State Lows

Community

WunderPhotos

Upload Photos

1,757,937 photos uploaded!

Nearby

Snow Depth

Station Depth Elevation
Crab Creek 0 in 6860 ft
Somsen Ranch 1 in 6800 ft
Wildhorse Divide 0 in 6490 ft
Myrtle Creek 0 in 3520 ft
Sheep Mountain 0 in 6570 ft

Earthquake Activity

City Distance Mag. Time & Date
No recent earthquake activity has been reported nearby.
Minimum magnitude displayed is 2.5.

Coastal Water Temperatures

Place Temperature
No Stations Reporting

Nearby Weather Stations